BHS208 KFLL-MYNN
Flight info
| Callsign | BHS208 |
|---|---|
| Flight time | 0h 29m |
| Altitude | 21000 |
| Route | SNAPR2 RAJAY |
| Aircraft | B737/M-SDE2E3FGHIRWXY/LB1 |
Departure
| Time | 2026-05-04 02:09 |
|---|---|
| Airport | Fort Lauderdale Hollywood International Airport (KFLL) |
Arrival
| Time | 2026-05-04 02:39 |
|---|---|
| Airport | Lynden Pindling International Airport (MYNN) |
| Time | Latitude | Longitude | Altitude | Speed | Heading |
|---|---|---|---|---|---|
| 2026-05-04 01:40 | 26.07420 | -80.13642 | 15 ft | 0 kts | 162° |
| 2026-05-04 01:56 | 26.07424 | -80.13643 | 15 ft | 2 kts | 156° |
| 2026-05-04 01:56 | 26.07436 | -80.13650 | 18 ft | 1 kts | 157° |
| 2026-05-04 01:56 | 26.07450 | -80.13658 | 15 ft | 3 kts | 129° |
| 2026-05-04 01:56 | 26.07454 | -80.13673 | 16 ft | 3 kts | 57° |
| 2026-05-04 01:57 | 26.07440 | -80.13687 | 18 ft | 3 kts | 24° |
| 2026-05-04 01:57 | 26.07425 | -80.13692 | 15 ft | 1 kts | 0° |
| 2026-05-04 01:57 | 26.07418 | -80.13692 | 18 ft | 3 kts | 0° |
| 2026-05-04 01:57 | 26.07405 | -80.13692 | 17 ft | 1 kts | 0° |
| 2026-05-04 02:01 | 26.07417 | -80.13692 | 18 ft | 4 kts | 360° |
| 2026-05-04 02:01 | 26.07447 | -80.13693 | 17 ft | 4 kts | 357° |
| 2026-05-04 02:01 | 26.07468 | -80.13716 | 16 ft | 5 kts | 290° |
| 2026-05-04 02:01 | 26.07469 | -80.13762 | 15 ft | 7 kts | 268° |
| 2026-05-04 02:02 | 26.07468 | -80.13816 | 15 ft | 7 kts | 268° |
| 2026-05-04 02:02 | 26.07474 | -80.13872 | 15 ft | 8 kts | 282° |
| 2026-05-04 02:02 | 26.07484 | -80.13940 | 15 ft | 9 kts | 274° |
| 2026-05-04 02:02 | 26.07485 | -80.14008 | 15 ft | 9 kts | 270° |
| 2026-05-04 02:03 | 26.07483 | -80.14076 | 15 ft | 9 kts | 267° |
| 2026-05-04 02:03 | 26.07485 | -80.14144 | 15 ft | 9 kts | 271° |
| 2026-05-04 02:03 | 26.07486 | -80.14210 | 15 ft | 8 kts | 270° |
| 2026-05-04 02:03 | 26.07486 | -80.14277 | 15 ft | 9 kts | 270° |
| 2026-05-04 02:04 | 26.07487 | -80.14359 | 15 ft | 12 kts | 270° |
| 2026-05-04 02:04 | 26.07487 | -80.14461 | 15 ft | 14 kts | 271° |
| 2026-05-04 02:04 | 26.07488 | -80.14582 | 15 ft | 17 kts | 271° |
| 2026-05-04 02:04 | 26.07489 | -80.14715 | 15 ft | 17 kts | 270° |
| 2026-05-04 02:05 | 26.07488 | -80.14844 | 15 ft | 16 kts | 269° |
| 2026-05-04 02:05 | 26.07488 | -80.14968 | 15 ft | 16 kts | 270° |
| 2026-05-04 02:05 | 26.07489 | -80.15087 | 15 ft | 15 kts | 270° |
| 2026-05-04 02:05 | 26.07490 | -80.15201 | 15 ft | 14 kts | 270° |
| 2026-05-04 02:06 | 26.07490 | -80.15311 | 15 ft | 14 kts | 270° |
| 2026-05-04 02:06 | 26.07491 | -80.15421 | 15 ft | 16 kts | 271° |
| 2026-05-04 02:06 | 26.07492 | -80.15560 | 15 ft | 19 kts | 270° |
| 2026-05-04 02:06 | 26.07492 | -80.15706 | 15 ft | 19 kts | 270° |
| 2026-05-04 02:07 | 26.07493 | -80.15847 | 15 ft | 18 kts | 270° |
| 2026-05-04 02:07 | 26.07495 | -80.15984 | 15 ft | 18 kts | 270° |
| 2026-05-04 02:07 | 26.07495 | -80.16149 | 15 ft | 23 kts | 270° |
| 2026-05-04 02:07 | 26.07495 | -80.16326 | 15 ft | 22 kts | 270° |
| 2026-05-04 02:08 | 26.07497 | -80.16480 | 15 ft | 19 kts | 271° |
| 2026-05-04 02:08 | 26.07510 | -80.16622 | 17 ft | 18 kts | 301° |
| 2026-05-04 02:08 | 26.07625 | -80.16645 | 16 ft | 17 kts | 358° |
| 2026-05-04 02:08 | 26.07694 | -80.16573 | 17 ft | 17 kts | 90° |
| 2026-05-04 02:09 | 26.07694 | -80.16284 | 20 ft | 72 kts | 90° |
| 2026-05-04 02:09 | 26.07689 | -80.15466 | 15 ft | 137 kts | 90° |
| 2026-05-04 02:09 | 26.07731 | -80.14236 | 218 ft | 170 kts | 87° |
| 2026-05-04 02:09 | 26.07749 | -80.12939 | 1054 ft | 166 kts | 88° |
| 2026-05-04 02:10 | 26.07760 | -80.11677 | 1847 ft | 164 kts | 89° |
| 2026-05-04 02:10 | 26.07769 | -80.10332 | 2254 ft | 189 kts | 89° |
| 2026-05-04 02:10 | 26.07779 | -80.08761 | 2546 ft | 217 kts | 90° |
| 2026-05-04 02:10 | 26.07791 | -80.07001 | 2761 ft | 245 kts | 90° |
| 2026-05-04 02:11 | 26.07805 | -80.04995 | 3095 ft | 269 kts | 90° |
| 2026-05-04 02:11 | 26.07820 | -80.02885 | 3823 ft | 276 kts | 90° |
| 2026-05-04 02:11 | 26.07836 | -80.00732 | 4664 ft | 279 kts | 90° |
| 2026-05-04 02:11 | 26.07827 | -79.98547 | 5407 ft | 286 kts | 91° |
| 2026-05-04 02:12 | 26.07802 | -79.96308 | 6191 ft | 292 kts | 92° |
| 2026-05-04 02:12 | 26.07774 | -79.94023 | 6969 ft | 298 kts | 92° |
| 2026-05-04 02:12 | 26.07747 | -79.91707 | 7784 ft | 303 kts | 91° |
| 2026-05-04 02:12 | 26.07722 | -79.89345 | 8663 ft | 307 kts | 91° |
| 2026-05-04 02:13 | 26.07696 | -79.86943 | 9552 ft | 312 kts | 91° |
| 2026-05-04 02:13 | 26.07670 | -79.84511 | 10368 ft | 319 kts | 91° |
| 2026-05-04 02:13 | 26.07518 | -79.81960 | 10648 ft | 344 kts | 101° |
| 2026-05-04 02:13 | 26.06992 | -79.79280 | 11040 ft | 362 kts | 106° |
| 2026-05-04 02:14 | 26.06336 | -79.76538 | 11766 ft | 369 kts | 107° |
| 2026-05-04 02:14 | 26.05682 | -79.73799 | 12594 ft | 372 kts | 107° |
| 2026-05-04 02:14 | 26.05044 | -79.70995 | 13415 ft | 377 kts | 106° |
| 2026-05-04 02:14 | 26.04419 | -79.68139 | 14163 ft | 382 kts | 106° |
| 2026-05-04 02:15 | 26.03794 | -79.65238 | 14845 ft | 388 kts | 106° |
| 2026-05-04 02:15 | 26.03142 | -79.62308 | 15563 ft | 393 kts | 107° |
| 2026-05-04 02:15 | 26.02450 | -79.59350 | 16282 ft | 398 kts | 108° |
| 2026-05-04 02:15 | 26.01739 | -79.56356 | 16985 ft | 403 kts | 108° |
| 2026-05-04 02:16 | 26.01016 | -79.53315 | 17680 ft | 409 kts | 108° |
| 2026-05-04 02:16 | 26.00287 | -79.50230 | 18367 ft | 415 kts | 108° |
| 2026-05-04 02:16 | 25.99559 | -79.47143 | 18940 ft | 420 kts | 108° |
| 2026-05-04 02:16 | 25.98817 | -79.43985 | 19535 ft | 425 kts | 108° |
| 2026-05-04 02:17 | 25.98066 | -79.40794 | 20136 ft | 429 kts | 108° |
| 2026-05-04 02:17 | 25.97280 | -79.37569 | 20748 ft | 431 kts | 111° |
| 2026-05-04 02:17 | 25.96308 | -79.34402 | 21014 ft | 435 kts | 114° |
| 2026-05-04 02:17 | 25.95189 | -79.31217 | 21043 ft | 448 kts | 116° |
| 2026-05-04 02:18 | 25.93996 | -79.27971 | 21053 ft | 460 kts | 116° |
| 2026-05-04 02:18 | 25.92770 | -79.24633 | 21055 ft | 472 kts | 116° |
| 2026-05-04 02:18 | 25.91538 | -79.21223 | 21053 ft | 482 kts | 115° |
| 2026-05-04 02:18 | 25.90294 | -79.17723 | 21048 ft | 490 kts | 115° |
| 2026-05-04 02:19 | 25.89051 | -79.14181 | 21045 ft | 496 kts | 115° |
| 2026-05-04 02:19 | 25.87805 | -79.10603 | 21031 ft | 493 kts | 115° |
| 2026-05-04 02:19 | 25.86588 | -79.07103 | 21030 ft | 492 kts | 115° |
| 2026-05-04 02:19 | 25.85355 | -79.03561 | 21032 ft | 492 kts | 115° |
| 2026-05-04 02:20 | 25.84119 | -79.00022 | 21034 ft | 492 kts | 115° |
| 2026-05-04 02:20 | 25.82878 | -78.96479 | 21032 ft | 492 kts | 115° |
| 2026-05-04 02:20 | 25.81638 | -78.92946 | 21034 ft | 492 kts | 115° |
| 2026-05-04 02:20 | 25.80387 | -78.89385 | 21040 ft | 493 kts | 115° |
| 2026-05-04 02:21 | 25.79141 | -78.85839 | 21033 ft | 493 kts | 115° |
| 2026-05-04 02:21 | 25.77895 | -78.82295 | 21036 ft | 493 kts | 115° |
| 2026-05-04 02:21 | 25.76647 | -78.78748 | 21040 ft | 493 kts | 115° |
| 2026-05-04 02:21 | 25.75398 | -78.75204 | 21038 ft | 494 kts | 115° |
| 2026-05-04 02:22 | 25.74123 | -78.71669 | 21034 ft | 492 kts | 118° |
| 2026-05-04 02:22 | 25.72446 | -78.68392 | 21046 ft | 485 kts | 128° |
| 2026-05-04 02:22 | 25.70521 | -78.65320 | 21035 ft | 484 kts | 130° |
| 2026-05-04 02:22 | 25.68572 | -78.62318 | 21013 ft | 471 kts | 130° |
| 2026-05-04 02:23 | 25.66712 | -78.59418 | 21013 ft | 449 kts | 130° |
| 2026-05-04 02:23 | 25.64967 | -78.56639 | 21019 ft | 430 kts | 130° |
| 2026-05-04 02:23 | 25.63300 | -78.53948 | 21028 ft | 425 kts | 129° |
| 2026-05-04 02:23 | 25.61634 | -78.51246 | 20887 ft | 424 kts | 129° |
| 2026-05-04 02:24 | 25.59991 | -78.48574 | 20420 ft | 424 kts | 129° |
| 2026-05-04 02:24 | 25.58333 | -78.45879 | 19888 ft | 420 kts | 129° |
| 2026-05-04 02:24 | 25.56465 | -78.43479 | 19318 ft | 407 kts | 143° |
| 2026-05-04 02:24 | 25.54338 | -78.41449 | 18797 ft | 401 kts | 145° |
| 2026-05-04 02:25 | 25.52193 | -78.39468 | 18188 ft | 399 kts | 145° |
| 2026-05-04 02:25 | 25.50067 | -78.37505 | 17566 ft | 396 kts | 145° |
| 2026-05-04 02:25 | 25.47970 | -78.35549 | 16962 ft | 392 kts | 144° |
| 2026-05-04 02:25 | 25.45893 | -78.33594 | 16366 ft | 389 kts | 144° |
| 2026-05-04 02:26 | 25.43873 | -78.31681 | 15798 ft | 385 kts | 144° |
| 2026-05-04 02:26 | 25.41850 | -78.29759 | 15232 ft | 382 kts | 143° |
| 2026-05-04 02:26 | 25.39839 | -78.27847 | 14665 ft | 379 kts | 143° |
| 2026-05-04 02:26 | 25.37847 | -78.25954 | 14091 ft | 376 kts | 143° |
| 2026-05-04 02:27 | 25.35862 | -78.24068 | 13481 ft | 374 kts | 143° |
| 2026-05-04 02:27 | 25.33923 | -78.22225 | 13294 ft | 359 kts | 143° |
| 2026-05-04 02:27 | 25.32057 | -78.20452 | 13108 ft | 346 kts | 143° |
| 2026-05-04 02:27 | 25.30471 | -78.18548 | 12917 ft | 332 kts | 126° |
| 2026-05-04 02:28 | 25.29560 | -78.16226 | 12552 ft | 331 kts | 107° |
| 2026-05-04 02:28 | 25.29027 | -78.13757 | 12171 ft | 329 kts | 104° |
| 2026-05-04 02:28 | 25.28557 | -78.11291 | 11766 ft | 327 kts | 104° |
| 2026-05-04 02:28 | 25.28101 | -78.08838 | 11354 ft | 325 kts | 104° |
| 2026-05-04 02:29 | 25.27643 | -78.06399 | 10969 ft | 323 kts | 104° |
| 2026-05-04 02:29 | 25.27180 | -78.03982 | 10574 ft | 321 kts | 104° |
| 2026-05-04 02:29 | 25.26714 | -78.01578 | 10184 ft | 319 kts | 104° |
| 2026-05-04 02:29 | 25.26251 | -77.99220 | 9871 ft | 313 kts | 104° |
| 2026-05-04 02:30 | 25.25802 | -77.96939 | 9871 ft | 297 kts | 104° |
| 2026-05-04 02:30 | 25.25361 | -77.94711 | 9446 ft | 297 kts | 104° |
| 2026-05-04 02:30 | 25.24918 | -77.92484 | 9057 ft | 296 kts | 104° |
| 2026-05-04 02:30 | 25.24473 | -77.90256 | 8661 ft | 296 kts | 104° |
| 2026-05-04 02:31 | 25.24031 | -77.88039 | 8272 ft | 295 kts | 104° |
| 2026-05-04 02:31 | 25.23589 | -77.85824 | 7883 ft | 295 kts | 104° |
| 2026-05-04 02:31 | 25.23148 | -77.83622 | 7502 ft | 294 kts | 103° |
| 2026-05-04 02:31 | 25.22708 | -77.81423 | 7128 ft | 293 kts | 103° |
| 2026-05-04 02:32 | 25.22269 | -77.79229 | 6741 ft | 287 kts | 103° |
| 2026-05-04 02:32 | 25.21848 | -77.77122 | 6204 ft | 285 kts | 103° |
| 2026-05-04 02:32 | 25.21420 | -77.74987 | 5762 ft | 279 kts | 103° |
| 2026-05-04 02:32 | 25.21005 | -77.72920 | 5383 ft | 272 kts | 103° |
| 2026-05-04 02:33 | 25.20603 | -77.70916 | 5058 ft | 264 kts | 103° |
| 2026-05-04 02:33 | 25.20212 | -77.68965 | 4738 ft | 256 kts | 103° |
| 2026-05-04 02:33 | 25.19830 | -77.67066 | 4425 ft | 248 kts | 103° |
| 2026-05-04 02:33 | 25.19461 | -77.65236 | 4143 ft | 240 kts | 103° |
| 2026-05-04 02:34 | 25.19029 | -77.63477 | 3869 ft | 236 kts | 119° |
| 2026-05-04 02:34 | 25.18085 | -77.62045 | 3629 ft | 228 kts | 130° |
| 2026-05-04 02:34 | 25.17042 | -77.60742 | 3323 ft | 222 kts | 134° |
| 2026-05-04 02:34 | 25.15978 | -77.59543 | 3034 ft | 215 kts | 135° |
| 2026-05-04 02:35 | 25.14933 | -77.58389 | 2726 ft | 209 kts | 135° |
| 2026-05-04 02:35 | 25.13925 | -77.57272 | 2455 ft | 199 kts | 135° |
| 2026-05-04 02:35 | 25.12996 | -77.56243 | 2218 ft | 183 kts | 134° |
| 2026-05-04 02:35 | 25.12130 | -77.55281 | 1972 ft | 170 kts | 134° |
| 2026-05-04 02:36 | 25.11334 | -77.54399 | 1798 ft | 151 kts | 134° |
| 2026-05-04 02:36 | 25.10620 | -77.53606 | 1567 ft | 139 kts | 133° |
| 2026-05-04 02:36 | 25.09941 | -77.52853 | 1394 ft | 137 kts | 133° |
| 2026-05-04 02:36 | 25.09260 | -77.52100 | 1150 ft | 143 kts | 134° |
| 2026-05-04 02:37 | 25.08556 | -77.51324 | 942 ft | 140 kts | 133° |
| 2026-05-04 02:37 | 25.07875 | -77.50574 | 757 ft | 138 kts | 134° |
| 2026-05-04 02:37 | 25.07190 | -77.49822 | 610 ft | 139 kts | 133° |
| 2026-05-04 02:37 | 25.06515 | -77.49053 | 474 ft | 140 kts | 132° |
| 2026-05-04 02:38 | 25.05838 | -77.48281 | 267 ft | 145 kts | 134° |
| 2026-05-04 02:38 | 25.05125 | -77.47508 | 31 ft | 139 kts | 133° |
| 2026-05-04 02:38 | 25.04521 | -77.46832 | 20 ft | 104 kts | 135° |
| 2026-05-04 02:38 | 25.04113 | -77.46384 | 16 ft | 61 kts | 135° |
| 2026-05-04 02:39 | 25.03901 | -77.46144 | 20 ft | 31 kts | 133° |
| 2026-05-04 02:39 | 25.03787 | -77.46011 | 19 ft | 17 kts | 134° |
| 2026-05-04 02:39 | 25.03772 | -77.45929 | 18 ft | 12 kts | 53° |
| 2026-05-04 02:39 | 25.03830 | -77.45868 | 17 ft | 11 kts | 32° |
| 2026-05-04 02:40 | 25.03901 | -77.45888 | 16 ft | 11 kts | 316° |
| 2026-05-04 02:40 | 25.03952 | -77.45951 | 16 ft | 11 kts | 312° |
| 2026-05-04 02:40 | 25.04004 | -77.46010 | 19 ft | 11 kts | 314° |
| 2026-05-04 02:40 | 25.04055 | -77.46066 | 17 ft | 11 kts | 315° |
| 2026-05-04 02:41 | 25.04119 | -77.46138 | 16 ft | 14 kts | 316° |
| 2026-05-04 02:41 | 25.04187 | -77.46213 | 17 ft | 13 kts | 314° |
| 2026-05-04 02:41 | 25.04253 | -77.46284 | 17 ft | 13 kts | 315° |
| 2026-05-04 02:41 | 25.04295 | -77.46330 | 16 ft | 13 kts | 314° |
| 2026-05-04 02:42 | 25.04355 | -77.46400 | 17 ft | 13 kts | 313° |
| 2026-05-04 02:42 | 25.04429 | -77.46479 | 16 ft | 16 kts | 317° |
| 2026-05-04 02:42 | 25.04530 | -77.46592 | 17 ft | 15 kts | 315° |
| 2026-05-04 02:42 | 25.04606 | -77.46673 | 17 ft | 16 kts | 315° |
| 2026-05-04 02:43 | 25.04663 | -77.46737 | 17 ft | 18 kts | 315° |
| 2026-05-04 02:43 | 25.04752 | -77.46833 | 19 ft | 18 kts | 315° |
| 2026-05-04 02:43 | 25.04822 | -77.46911 | 17 ft | 13 kts | 315° |
| 2026-05-04 02:43 | 25.04902 | -77.46941 | 16 ft | 13 kts | 22° |
| 2026-05-04 02:44 | 25.04945 | -77.46860 | 17 ft | 12 kts | 70° |
| 2026-05-04 02:44 | 25.04955 | -77.46785 | 16 ft | 9 kts | 121° |
| 2026-05-04 02:44 | 25.04902 | -77.46766 | 16 ft | 3 kts | 156° |
| 2026-05-04 02:44 | 25.04896 | -77.46763 | 16 ft | 0 kts | 156° |